Dahlonega, GA

04:16 PM EDT on Octòbre 01, 2014 (GMT -0400)
Canton | Change Station
CLOSE
Current Station
Airport
Location: Canton,
Elevation: 1217 ft
Nearby Weather Stations

Elev 1217 ft 34.31 °N, 84.42 °W | Updated 1094 days ago

Clar
Clar
81 °F
Feels Like 81 °F
N
3
vent Variadís vent from OSO
Gusts 6 mph

Auèi
High -- | Low -- °F
--% Chance of Precip.
Yesterday
High -- | Low -- °F
Precip. -- Dins
7:30 AM 7:20 PM
Waxing Crescent, 50% visible
Pression 30.20 Dins
Visibilitat 10.0 miles
Nivols Clar
Punt de ròs 54 °F
Imor 37%
Rainfall 0.00 Dins
Snow Depth Not available.
UV 7 out of 12
Pollen 6.00 out of 12
Air Quality Not available.
Flu Activity Not available.
METAR K47A 031635Z AUTO 29004KT 10SM CLR 19/06 A3020 RMK AO2

More Conditions Fewer Conditions

Pression 30.20 Dins
Visibilitat 10.0 miles
Nivols Clar
Punt de ròs 54 °F
Imor 37%
Rainfall 0.00 Dins
Snow Depth Not available.
UV 7 out of 12
Pollen 6.00 out of 12
Air Quality Not available.
Flu Activity Not available.
METAR K47A 031635Z AUTO 29004KT 10SM CLR 19/06 A3020 RMK AO2

More Conditions Fewer Conditions

10-Day Weather Forecast

Almanac

Astronomy

Oct. 01, 2014 Rise Set
Actual Time 7:30 AM EDT 7:20 PM EDT
Civil Twilight 7:05 AM EDT 7:45 PM EDT
Nautical Twilight 6:36 AM EDT 8:14 PM EDT
Astronomical Twilight 6:06 AM EDT 8:43 PM EDT
Luna 2:20 PM EDT 12:01 AM EDT
Length Of Visible Light 12h 39m
Length of Day
11h 49m
Tomorrow will be 2m 8s shorter.
Waxing Crescent, 50% of the Moon is Illuminated
Auèi
Waxing Crescent
Oct 8
Full
Oct 15
Last Quarter
Oct 23
New
Oct 30
First Quarter

Today's Extremes

State Highs State Lows

Community

WunderPhotos

Upload Photos

1,758,022 photos uploaded!

WunderBlogs® & News

By Dr. Jeff Masters
Director of Meteorology, Weather Underground
By Kari Strenfel
Meteorologist, Weather Underground
By Christopher C. Burt
Weather Historian, Weather Underground
October 1, 2014
October 1, 2014
October 1, 2014

Nearby

Snow Depth

Station Depth Elevation
No new snow has been reported.

Earthquake Activity

Vila Distance Mag. Time & Date
No recent earthquake activity has been reported nearby.
Minimum magnitude displayed is 2.5.

Coastal Water Temperatures

Luòc Temperatura
No Stations Reporting

Nearby Weather Stations